Amalia — SXMT — position and weather

sailwx.info

Track history (hours):
 
Tides and Currents Weather Stations Pressure Air Temp Water Temp Dewpoint Dewpoint Depression Visibility Wind Speed Wind Dir Waves Ship Positions

Amalia

Last reported at 2014-Sep-01 18:33 UTC. Time now 2014-Sep-01 18:46 UTC.
Position N 29°45' E 122°21'.

Length 225 m; draft 12.9 m.

Type: Cargo ship. MMSI: 239652000.

Date/timePositionNaut miles runAvg speedWind from/ knotsBaromVisibWave heightAir tempDewpointWater temp
2014-Sep-01 18:33N 29°45' E 122°21'0 0.1
2014-Sep-01 17:34N 29°45' E 122°21'0 0.0
2014-Sep-01 16:34N 29°45' E 122°21'0 0.1
2014-Sep-01 15:33N 29°45' E 122°21'0 0.1
2014-Sep-01 14:33N 29°45' E 122°21'0 0.0
2014-Sep-01 13:33N 29°45' E 122°21'0 0.2
2014-Sep-01 12:33N 29°45' E 122°22'0 0.1
2014-Sep-01 11:34N 29°45' E 122°22'0 0.1
2014-Sep-01 10:33N 29°45' E 122°22'0 0.1
2014-Sep-01 09:33N 29°45' E 122°22'0 0.0
2014-Sep-01 08:33N 29°45' E 122°22'0 0.1
2014-Sep-01 07:33N 29°45' E 122°22'0 0.2
2014-Sep-01 06:34N 29°45' E 122°21'0 0.1
2014-Sep-01 05:33N 29°45' E 122°21'0 0.1
2014-Sep-01 04:33N 29°45' E 122°21'0 0.1
2014-Sep-01 03:34N 29°45' E 122°21'0 0.1
2014-Sep-01 02:31N 29°45' E 122°21'0 0.0
2014-Sep-01 01:33N 29°45' E 122°21'0 0.1
2014-Sep-01 00:33N 29°45' E 122°21'0 0.2
2014-Aug-31 23:33N 29°45' E 122°22'0 0.0
2014-Aug-31 22:33N 29°45' E 122°22'0 0.0
2014-Aug-31 21:33N 29°45' E 122°22'0 0.1
2014-Aug-31 20:33N 29°45' E 122°22'0 0.1
2014-Aug-31 19:33N 29°45' E 122°22'0 0.1
2014-Aug-31 18:33N 29°45' E 122°22'0 0.2
2014-Aug-31 17:33N 29°45' E 122°21'0 0.0
2014-Aug-31 16:33N 29°45' E 122°21'0 0.1
2014-Aug-31 15:33N 29°45' E 122°21'0 0.1
2014-Aug-31 14:33N 29°45' E 122°21'0 0.1
2014-Aug-31 13:33N 29°45' E 122°21'0 0.1
2014-Aug-31 12:34N 29°45' E 122°21'0 0.1
2014-Aug-31 11:34N 29°45' E 122°22'0 0.1
2014-Aug-31 10:33N 29°45' E 122°22'0 0.1
2014-Aug-31 09:33N 29°45' E 122°22'0 0.1
2014-Aug-31 08:34N 29°45' E 122°22'0 0.1
2014-Aug-31 07:33N 29°45' E 122°22'0 0.2
2014-Aug-31 06:33N 29°45' E 122°21'0 0.1
2014-Aug-31 05:34N 29°45' E 122°21'0 0.1
2014-Aug-31 04:33N 29°45' E 122°21'0 0.1
2014-Aug-31 03:34N 29°45' E 122°21'0 0.2
2014-Aug-31 02:33N 29°45' E 122°21'5 5.3
2014-Aug-31 01:33N 29°45' E 122°27'10 9.7
2014-Aug-31 00:34N 29°45' E 122°39'8 7.8
2014-Aug-30 23:33N 29°38' E 122°39'10 9.7
2014-Aug-30 22:33N 29°28' E 122°37'10 9.5
2014-Aug-30 21:33N 29°19' E 122°34'  
Track history (hours):
 
Tides and Currents Weather Stations Pressure Air Temp Water Temp Dewpoint Dewpoint Depression Visibility Wind Speed Wind Dir Waves Ship Positions

Amalia

Last reported at 2014-Sep-01 18:33 UTC. Time now 2014-Sep-01 18:46 UTC.
Position N 29°45' E 122°21'.

Length 225 m; draft 12.9 m.

Type: Cargo ship. MMSI: 239652000.

Date/timePositionNaut miles runAvg speedWind from/ knotsBaromVisibWave heightAir tempDewpointWater temp
2014-Sep-01 18:33N 29°45' E 122°21'0 0.1
2014-Sep-01 17:34N 29°45' E 122°21'0 0.0
2014-Sep-01 16:34N 29°45' E 122°21'0 0.1
2014-Sep-01 15:33N 29°45' E 122°21'0 0.1
2014-Sep-01 14:33N 29°45' E 122°21'0 0.0
2014-Sep-01 13:33N 29°45' E 122°21'0 0.2
2014-Sep-01 12:33N 29°45' E 122°22'0 0.1
2014-Sep-01 11:34N 29°45' E 122°22'0 0.1
2014-Sep-01 10:33N 29°45' E 122°22'0 0.1
2014-Sep-01 09:33N 29°45' E 122°22'0 0.0
2014-Sep-01 08:33N 29°45' E 122°22'0 0.1
2014-Sep-01 07:33N 29°45' E 122°22'0 0.2
2014-Sep-01 06:34N 29°45' E 122°21'0 0.1
2014-Sep-01 05:33N 29°45' E 122°21'0 0.1
2014-Sep-01 04:33N 29°45' E 122°21'0 0.1
2014-Sep-01 03:34N 29°45' E 122°21'0 0.1
2014-Sep-01 02:31N 29°45' E 122°21'0 0.0
2014-Sep-01 01:33N 29°45' E 122°21'0 0.1
2014-Sep-01 00:33N 29°45' E 122°21'0 0.2
2014-Aug-31 23:33N 29°45' E 122°22'0 0.0
2014-Aug-31 22:33N 29°45' E 122°22'0 0.0
2014-Aug-31 21:33N 29°45' E 122°22'0 0.1
2014-Aug-31 20:33N 29°45' E 122°22'0 0.1
2014-Aug-31 19:33N 29°45' E 122°22'0 0.1
2014-Aug-31 18:33N 29°45' E 122°22'0 0.2
2014-Aug-31 17:33N 29°45' E 122°21'0 0.0
2014-Aug-31 16:33N 29°45' E 122°21'0 0.1
2014-Aug-31 15:33N 29°45' E 122°21'0 0.1
2014-Aug-31 14:33N 29°45' E 122°21'0 0.1
2014-Aug-31 13:33N 29°45' E 122°21'0 0.1
2014-Aug-31 12:34N 29°45' E 122°21'0 0.1
2014-Aug-31 11:34N 29°45' E 122°22'0 0.1
2014-Aug-31 10:33N 29°45' E 122°22'0 0.1
2014-Aug-31 09:33N 29°45' E 122°22'0 0.1
2014-Aug-31 08:34N 29°45' E 122°22'0 0.1
2014-Aug-31 07:33N 29°45' E 122°22'0 0.2
2014-Aug-31 06:33N 29°45' E 122°21'0 0.1
2014-Aug-31 05:34N 29°45' E 122°21'0 0.1
2014-Aug-31 04:33N 29°45' E 122°21'0 0.1
2014-Aug-31 03:34N 29°45' E 122°21'0 0.2
2014-Aug-31 02:33N 29°45' E 122°21'5 5.3
2014-Aug-31 01:33N 29°45' E 122°27'10 9.7
2014-Aug-31 00:34N 29°45' E 122°39'8 7.8
2014-Aug-30 23:33N 29°38' E 122°39'10 9.7
2014-Aug-30 22:33N 29°28' E 122°37'10 9.5
2014-Aug-30 21:33N 29°19' E 122°34'  

Dump ship's entire track history